Home   Weather   Italy   Milan   Past weeks
Flag for Italy

Past Weather in Milan, Italy — June 2016

Currently: 54 °F. Mostly cloudy. (Weather station: Milan / Linate, Italy). See more current weather

June 2016 Weather in Milan — Graph

°F

High & Low Weather Summary for June 2016

 TemperatureHumidityPressure
High91 °F (Jun 24, 2:50 pm)100% (Jun 3, 3:20 am)30.21 "Hg (Jun 3, 3:20 am)
Low55 °F (Jun 20, 5:20 am)25% (Jun 27, 5:50 pm)29.47 "Hg (Jun 14, 6:20 pm)
Average71 °F67%29.91 "Hg
* Reported Jun 1 12:20 am — Jun 30 11:50 pm, Milan. Weather by CustomWeather, © 2021

Note: Actual official high and low records may vary slightly from our data, if they occured in-between our weather recording intervals... More about our weather records

Milan Weather History for June 1, 2016

Scroll right to see more
 ConditionsComfort  
Time TempWeatherWind HumidityBarometerVisibility
12:20 am
Wed, Jun 1
59 °FPassing clouds.No wind88%29.95 "HgN/A
12:50 am57 °FPassing clouds.1 mph94%29.95 "HgN/A
1:20 am57 °FPassing clouds.1 mph94%29.92 "HgN/A
1:50 am57 °FPassing clouds.1 mph94%29.92 "HgN/A
2:20 am57 °FPassing clouds.No wind94%29.92 "HgN/A
2:50 am57 °FPassing clouds.1 mph94%29.92 "HgN/A
3:20 am57 °FPassing clouds.3 mph94%29.92 "HgN/A
3:50 am57 °FPassing clouds.2 mph94%29.92 "HgN/A
4:20 am59 °FPassing clouds.3 mph88%29.92 "HgN/A
4:50 am59 °FPassing clouds.2 mph88%29.92 "HgN/A
5:20 am59 °FPassing clouds.2 mph88%29.92 "HgN/A
5:50 am59 °FPassing clouds.5 mph88%29.92 "HgN/A
6:20 am59 °FPassing clouds.1 mph88%29.92 "HgN/A
6:50 am59 °FPartly sunny.2 mph88%29.92 "HgN/A
7:20 am59 °FPartly sunny.2 mph88%29.92 "HgN/A
7:50 am61 °FPartly sunny.2 mph83%29.92 "HgN/A
8:20 am61 °FScattered clouds.2 mph83%29.92 "HgN/A
8:50 am63 °FPartly sunny.5 mph77%29.92 "HgN/A
9:20 am63 °FPartly sunny.5 mph77%29.92 "HgN/A
9:50 am63 °FPartly sunny.3 mph73%29.92 "HgN/A
10:20 am64 °FPartly sunny.3 mph68%29.92 "HgN/A
10:50 am66 °FPartly sunny.3 mph68%29.92 "HgN/A
11:20 am68 °FPartly sunny.2 mph64%29.95 "HgN/A
11:50 am68 °FPartly sunny.2 mph64%29.95 "HgN/A
12:20 pm68 °FBroken clouds.2 mph64%29.92 "HgN/A
12:50 pm72 °FScattered clouds.2 mph57%29.92 "HgN/A
1:20 pm72 °FScattered clouds.5 mph53%29.92 "HgN/A
1:50 pm72 °FPartly sunny.7 mph53%29.92 "HgN/A
2:20 pm72 °FPartly sunny.6 mph61%29.89 "HgN/A
2:50 pm72 °FPartly sunny.5 mph57%29.89 "HgN/A
3:20 pm72 °FPartly sunny.5 mph53%29.89 "HgN/A
3:50 pm70 °FPartly sunny.7 mph60%29.89 "HgN/A
4:20 pm70 °FBroken clouds.9 mph64%29.89 "HgN/A
4:50 pm70 °FBroken clouds.7 mph64%29.89 "HgN/A
5:20 pm70 °FBroken clouds.5 mph64%29.89 "HgN/A
5:50 pm70 °FBroken clouds.5 mph60%29.89 "HgN/A
6:50 pm66 °FThunderstorms. Broken clouds.9 mph68%29.89 "HgN/A
7:20 pm64 °FThunderstorms. Broken clouds.7 mph73%29.89 "HgN/A
7:50 pm63 °FLight rain. Broken clouds.5 mph88%29.89 "HgN/A
8:20 pm63 °FLight rain. Broken clouds.3 mph83%29.89 "HgN/A
8:50 pm64 °FDrizzle. Broken clouds.2 mph78%29.89 "HgN/A
9:20 pm63 °FBroken clouds.1 mph83%29.89 "HgN/A
9:50 pm63 °FBroken clouds.2 mph83%29.89 "HgN/A
10:20 pm63 °FPartly cloudy.No wind83%29.92 "HgN/A
10:50 pm63 °FPartly cloudy.1 mph88%29.92 "HgN/A
11:20 pm63 °FPartly cloudy.2 mph88%29.92 "HgN/A
11:50 pm63 °FPartly cloudy.2 mph88%29.92 "HgN/A
Weather by CustomWeather, © 2021

See weather overview